Time;durP1;ratioP1;P1;durP2;ratioP2;P2;SDS_P1;SDS_P2;PMS_P1;PMS_P2;Temp;Humidity;BMP_temperature;BMP_pressure;BME280_temperature;BME280_humidity;BME280_pressure;Samples;Min_cycle;Max_cycle;Signal;HPM_P1;HPM_P2
2023/08/20 00:01:22;;;;;;;11.65;3.20;;;;;;;;;;5016203;28;20063;-79
2023/08/20 00:03:49;;;;;;;13.38;3.03;;;;;;;;;;5016368;28;20514;-79
2023/08/20 00:06:16;;;;;;;10.30;3.00;;;;;;;;;;5034761;28;20045;-78
2023/08/20 00:08:42;;;;;;;14.82;3.58;;;;;;;;;;5016690;28;20052;-78
2023/08/20 00:11:09;;;;;;;10.90;2.78;;;;;;;;;;5034882;28;20076;-79
2023/08/20 00:13:36;;;;;;;10.70;3.08;;;;;;;;;;5034497;28;20045;-79
2023/08/20 00:16:03;;;;;;;12.07;3.40;;;;;;;;;;5016698;28;20096;-78
2023/08/20 00:18:29;;;;;;;10.25;3.38;;;;;;;;;;5034401;28;20049;-78
2023/08/20 00:20:55;;;;;;;11.43;3.33;;;;;;;;;;5016754;28;20034;-77
2023/08/20 00:23:21;;;;;;;11.05;3.60;;;;;;;;;;5033724;28;20049;-78
2023/08/20 00:25:48;;;;;;;11.02;3.75;;;;;;;;;;5014982;28;20037;-78
2023/08/20 00:28:14;;;;;;;9.10;3.17;;;;;;;;;;4999734;28;20047;-78
2023/08/20 00:30:40;;;;;;;10.05;3.50;;;;;;;;;;5016151;28;20124;-79
2023/08/20 00:33:06;;;;;;;13.02;3.83;;;;;;;;;;5015971;28;20497;-78
2023/08/20 00:35:32;;;;;;;8.77;3.00;;;;;;;;;;5033596;28;20144;-79
2023/08/20 00:37:59;;;;;;;14.48;3.70;;;;;;;;;;5033785;28;20096;-78
2023/08/20 00:40:25;;;;;;;9.77;3.72;;;;;;;;;;5015932;28;20133;-78
2023/08/20 00:42:51;;;;;;;11.27;3.63;;;;;;;;;;5033102;28;20045;-78
2023/08/20 00:45:17;;;;;;;10.60;3.70;;;;;;;;;;5016103;28;20053;-78
2023/08/20 00:47:43;;;;;;;8.77;3.20;;;;;;;;;;5033221;28;20132;-78
2023/08/20 00:50:10;;;;;;;12.77;4.05;;;;;;;;;;5033547;28;20405;-79
2023/08/20 00:52:36;;;;;;;9.10;3.30;;;;;;;;;;5033054;28;20046;-77
2023/08/20 00:55:10;;;;;;;11.07;3.70;;;;;;;;;;5015184;28;20072;-78
2023/08/20 00:57:40;;;;;;;12.35;3.70;;;;;;;;;;4999114;28;20088;-78
2023/08/20 01:00:07;;;;;;;10.35;3.30;;;;;;;;;;5033466;28;20072;-79
2023/08/20 01:02:34;;;;;;;8.07;3.40;;;;;;;;;;4998245;28;20509;-79
2023/08/20 01:05:00;;;;;;;11.82;3.40;;;;;;;;;;5014506;28;20042;-79
2023/08/20 01:07:52;;;;;;;11.50;3.95;;;;;;;;;;5032047;28;20359;-79
2023/08/20 01:10:27;;;;;;;11.90;3.90;;;;;;;;;;5012298;28;20050;-79
2023/08/20 01:12:54;;;;;;;14.48;3.95;;;;;;;;;;5031887;28;20092;-80
2023/08/20 01:15:20;;;;;;;13.23;3.90;;;;;;;;;;5015234;28;20103;-79
2023/08/20 01:17:46;;;;;;;9.88;3.70;;;;;;;;;;5033269;28;20091;-79
2023/08/20 01:20:13;;;;;;;8.02;3.22;;;;;;;;;;5034284;28;20137;-79
2023/08/20 01:22:48;;;;;;;13.18;3.83;;;;;;;;;;5011372;28;20060;-78
2023/08/20 01:25:17;;;;;;;10.32;3.20;;;;;;;;;;5028852;28;20064;-77
2023/08/20 01:27:57;;;;;;;10.07;3.72;;;;;;;;;;5015961;28;20132;-78
2023/08/20 01:30:24;;;;;;;8.43;3.63;;;;;;;;;;5034342;28;20124;-78
2023/08/20 01:32:51;;;;;;;13.23;4.00;;;;;;;;;;5016104;28;20049;-79
2023/08/20 01:35:18;;;;;;;8.73;3.05;;;;;;;;;;5012406;28;20182;-80
2023/08/20 01:37:44;;;;;;;9.80;3.15;;;;;;;;;;5014540;28;20408;-80
2023/08/20 01:40:10;;;;;;;9.75;3.40;;;;;;;;;;5015493;28;20128;-79
2023/08/20 01:42:39;;;;;;;13.63;3.53;;;;;;;;;;5015144;28;20049;-79
2023/08/20 01:45:06;;;;;;;13.88;3.45;;;;;;;;;;5014908;28;20041;-79
2023/08/20 01:47:32;;;;;;;11.93;3.35;;;;;;;;;;5030607;28;20393;-79
2023/08/20 01:49:58;;;;;;;12.32;3.30;;;;;;;;;;5014032;28;20085;-80
2023/08/20 01:52:25;;;;;;;10.02;3.30;;;;;;;;;;5014349;28;20045;-79
2023/08/20 01:54:51;;;;;;;9.02;3.20;;;;;;;;;;5032652;28;20121;-79
2023/08/20 01:57:17;;;;;;;12.10;3.45;;;;;;;;;;5032796;28;20124;-79
2023/08/20 01:59:43;;;;;;;11.88;3.42;;;;;;;;;;5032829;28;20045;-78
2023/08/20 02:02:09;;;;;;;10.52;3.53;;;;;;;;;;5032575;28;20528;-79
2023/08/20 02:04:35;;;;;;;10.95;3.78;;;;;;;;;;5032473;28;20413;-78
2023/08/20 02:07:02;;;;;;;10.75;3.83;;;;;;;;;;5032876;28;20053;-78
2023/08/20 02:09:28;;;;;;;9.60;3.80;;;;;;;;;;5015523;28;20394;-79
2023/08/20 02:11:54;;;;;;;9.68;4.18;;;;;;;;;;5030988;28;20052;-78
2023/08/20 02:14:20;;;;;;;12.52;4.70;;;;;;;;;;5013127;28;20054;-79
2023/08/20 02:16:49;;;;;;;13.20;5.20;;;;;;;;;;5032474;28;20045;-79
2023/08/20 02:19:15;;;;;;;10.60;4.38;;;;;;;;;;5014859;28;20485;-79
2023/08/20 02:21:41;;;;;;;15.10;5.85;;;;;;;;;;5032764;28;20437;-79
2023/08/20 02:24:08;;;;;;;16.00;5.85;;;;;;;;;;5031958;28;20379;-79
2023/08/20 02:26:34;;;;;;;11.15;5.15;;;;;;;;;;5030711;28;20050;-79
2023/08/20 02:29:00;;;;;;;14.85;6.43;;;;;;;;;;5012039;28;20092;-79
2023/08/20 02:31:27;;;;;;;14.40;6.10;;;;;;;;;;5012883;28;20068;-79
2023/08/20 02:33:54;;;;;;;11.48;5.82;;;;;;;;;;5008181;28;20053;-79
2023/08/20 02:36:20;;;;;;;14.52;6.18;;;;;;;;;;5014480;28;20045;-79
2023/08/20 02:38:46;;;;;;;18.63;7.68;;;;;;;;;;5032027;28;20116;-81
2023/08/20 02:41:12;;;;;;;16.25;7.15;;;;;;;;;;5014316;28;20048;-79
2023/08/20 02:43:39;;;;;;;14.25;7.47;;;;;;;;;;5012723;28;20056;-79
2023/08/20 02:46:05;;;;;;;16.35;7.43;;;;;;;;;;5032050;28;20077;-79
2023/08/20 02:48:31;;;;;;;14.43;7.22;;;;;;;;;;5014762;28;20045;-80
2023/08/20 02:50:57;;;;;;;15.93;7.50;;;;;;;;;;5001928;28;20041;-78
2023/08/20 02:53:23;;;;;;;17.88;8.10;;;;;;;;;;5035895;28;20057;-79
2023/08/20 02:55:49;;;;;;;17.05;8.07;;;;;;;;;;5035475;28;20053;-79
2023/08/20 02:58:15;;;;;;;16.25;8.13;;;;;;;;;;5017583;28;20056;-79
2023/08/20 03:00:45;;;;;;;17.85;8.38;;;;;;;;;;5035520;28;20096;-79
2023/08/20 03:03:11;;;;;;;16.95;7.55;;;;;;;;;;5035128;28;20124;-79
2023/08/20 03:05:38;;;;;;;22.00;8.27;;;;;;;;;;5009440;28;20057;-79
2023/08/20 03:08:04;;;;;;;15.32;7.97;;;;;;;;;;5017506;28;20042;-79
2023/08/20 03:10:31;;;;;;;15.77;7.72;;;;;;;;;;5035330;28;20037;-80
2023/08/20 03:12:57;;;;;;;16.35;7.57;;;;;;;;;;5017106;28;20116;-79
2023/08/20 03:15:24;;;;;;;16.15;7.50;;;;;;;;;;5001143;28;20080;-79
2023/08/20 03:17:50;;;;;;;13.32;6.68;;;;;;;;;;5017530;28;20149;-79
2023/08/20 03:20:16;;;;;;;14.70;7.35;;;;;;;;;;5017649;28;20041;-79
2023/08/20 03:22:42;;;;;;;14.13;7.03;;;;;;;;;;5035051;28;20087;-79
2023/08/20 03:25:08;;;;;;;14.65;6.95;;;;;;;;;;5001067;28;20064;-79
2023/08/20 03:27:34;;;;;;;16.25;7.60;;;;;;;;;;5034840;28;20037;-79
2023/08/20 03:30:00;;;;;;;14.07;7.05;;;;;;;;;;5033237;28;20045;-79
2023/08/20 03:32:26;;;;;;;16.30;6.50;;;;;;;;;;5017276;28;20077;-79
2023/08/20 03:34:53;;;;;;;12.15;5.82;;;;;;;;;;5034681;28;20108;-79
2023/08/20 03:37:20;;;;;;;13.18;6.13;;;;;;;;;;5034034;28;20504;-79
2023/08/20 03:39:46;;;;;;;13.07;5.80;;;;;;;;;;5034881;28;20053;-79
2023/08/20 03:42:12;;;;;;;14.00;6.15;;;;;;;;;;5016709;28;20041;-79
2023/08/20 03:44:38;;;;;;;15.82;5.63;;;;;;;;;;5034560;28;20135;-79
2023/08/20 03:47:04;;;;;;;13.82;5.50;;;;;;;;;;5034431;28;20053;-78
2023/08/20 03:49:30;;;;;;;10.80;5.20;;;;;;;;;;5034071;28;20148;-79
2023/08/20 03:51:56;;;;;;;14.52;5.47;;;;;;;;;;5034421;28;20136;-79
2023/08/20 03:54:22;;;;;;;12.02;5.05;;;;;;;;;;5032828;28;20045;-79
2023/08/20 03:56:48;;;;;;;12.95;5.50;;;;;;;;;;5032619;28;20048;-79
2023/08/20 03:59:14;;;;;;;11.48;4.88;;;;;;;;;;5049181;28;20049;-80
2023/08/20 04:01:41;;;;;;;11.40;5.63;;;;;;;;;;5036839;28;20045;-78
2023/08/20 04:04:07;;;;;;;12.25;4.95;;;;;;;;;;5024239;28;20050;-78
2023/08/20 04:06:33;;;;;;;10.27;5.40;;;;;;;;;;4997686;28;20434;-78
2023/08/20 04:08:59;;;;;;;13.02;5.07;;;;;;;;;;4980951;28;20085;-78
2023/08/20 04:11:25;;;;;;;13.65;5.55;;;;;;;;;;4988837;28;20041;-83
2023/08/20 04:13:51;;;;;;;11.63;5.47;;;;;;;;;;4999796;28;20069;-77
2023/08/20 04:16:17;;;;;;;11.70;5.65;;;;;;;;;;5034479;28;20041;-78
2023/08/20 04:18:43;;;;;;;15.30;5.78;;;;;;;;;;5033123;28;20490;-77
2023/08/20 04:21:09;;;;;;;14.93;6.43;;;;;;;;;;5034509;28;20049;-79
2023/08/20 04:23:36;;;;;;;14.18;6.10;;;;;;;;;;5032635;28;20062;-79
2023/08/20 04:26:02;;;;;;;14.70;6.10;;;;;;;;;;5034481;28;20145;-79
2023/08/20 04:28:28;;;;;;;15.30;6.30;;;;;;;;;;5033639;28;20275;-79
2023/08/20 04:30:54;;;;;;;14.13;6.65;;;;;;;;;;5016221;28;20052;-78
2023/08/20 04:33:20;;;;;;;13.27;6.32;;;;;;;;;;5033950;28;20050;-79
2023/08/20 04:35:47;;;;;;;16.35;6.38;;;;;;;;;;5034272;28;20397;-78
2023/08/20 04:38:13;;;;;;;14.48;6.20;;;;;;;;;;5016456;28;20045;-79
2023/08/20 04:40:39;;;;;;;12.85;5.90;;;;;;;;;;5015671;28;20053;-78
2023/08/20 04:43:05;;;;;;;15.18;5.90;;;;;;;;;;5016138;28;20136;-77
2023/08/20 04:45:31;;;;;;;11.45;5.50;;;;;;;;;;5016715;28;20375;-78
2023/08/20 04:47:57;;;;;;;12.32;5.95;;;;;;;;;;5016000;28;20379;-78
2023/08/20 04:50:23;;;;;;;14.90;5.45;;;;;;;;;;5033997;28;20132;-78
2023/08/20 04:52:49;;;;;;;13.02;5.85;;;;;;;;;;5015679;28;20128;-78
2023/08/20 04:55:15;;;;;;;11.43;6.22;;;;;;;;;;5033817;28;20053;-78
2023/08/20 04:57:42;;;;;;;11.23;5.90;;;;;;;;;;5013931;28;20045;-78
2023/08/20 05:00:09;;;;;;;11.55;5.50;;;;;;;;;;5014491;28;20055;-78
2023/08/20 05:02:35;;;;;;;15.45;5.55;;;;;;;;;;5032950;28;20486;-78
2023/08/20 05:05:02;;;;;;;13.50;5.15;;;;;;;;;;5032888;28;20061;-78
2023/08/20 05:07:28;;;;;;;13.40;5.93;;;;;;;;;;5033645;28;20041;-77
2023/08/20 05:09:54;;;;;;;14.68;6.00;;;;;;;;;;5033905;28;20128;-78
2023/08/20 05:12:20;;;;;;;12.65;6.07;;;;;;;;;;5032971;28;20087;-77
2023/08/20 05:14:46;;;;;;;13.85;5.80;;;;;;;;;;5017602;28;20409;-79
2023/08/20 05:17:12;;;;;;;11.30;5.95;;;;;;;;;;5039022;28;20381;-76
2023/08/20 05:19:38;;;;;;;14.93;6.03;;;;;;;;;;5026956;28;20417;-77
2023/08/20 05:22:05;;;;;;;13.55;6.30;;;;;;;;;;5035859;28;20099;-79
2023/08/20 05:24:31;;;;;;;14.85;6.72;;;;;;;;;;5015788;28;20050;-78
2023/08/20 05:27:10;;;;;;;13.57;6.07;;;;;;;;;;5033636;28;20037;-78
2023/08/20 05:29:38;;;;;;;11.88;5.80;;;;;;;;;;5033825;28;20505;-78
2023/08/20 05:32:05;;;;;;;10.75;6.25;;;;;;;;;;4999923;28;20096;-78
2023/08/20 05:34:31;;;;;;;15.73;6.30;;;;;;;;;;5015479;28;20128;-78
2023/08/20 05:36:57;;;;;;;14.80;6.20;;;;;;;;;;5033365;28;20093;-78
2023/08/20 05:39:25;;;;;;;13.98;6.03;;;;;;;;;;5015584;28;20045;-79
2023/08/20 05:41:51;;;;;;;16.15;6.30;;;;;;;;;;5015611;28;20501;-79
2023/08/20 05:44:17;;;;;;;14.30;6.53;;;;;;;;;;5032976;28;20052;-79
2023/08/20 05:46:44;;;;;;;11.23;6.15;;;;;;;;;;5033008;28;20053;-78
2023/08/20 05:49:10;;;;;;;11.85;6.60;;;;;;;;;;5015147;28;20050;-78
2023/08/20 05:51:36;;;;;;;15.68;6.72;;;;;;;;;;5015651;28;20136;-78
2023/08/20 05:54:02;;;;;;;16.08;6.38;;;;;;;;;;5015042;28;20076;-78
2023/08/20 05:56:28;;;;;;;13.45;6.22;;;;;;;;;;5033024;28;20049;-78
2023/08/20 05:58:54;;;;;;;13.40;6.60;;;;;;;;;;5015402;28;20060;-78
2023/08/20 06:01:20;;;;;;;15.00;6.95;;;;;;;;;;5033046;28;20424;-78
2023/08/20 06:03:46;;;;;;;12.55;6.13;;;;;;;;;;5014494;28;20049;-79
2023/08/20 06:06:12;;;;;;;12.93;6.40;;;;;;;;;;5032906;28;20046;-78
2023/08/20 06:08:38;;;;;;;16.38;5.93;;;;;;;;;;5015166;28;20064;-78
2023/08/20 06:11:04;;;;;;;10.55;6.28;;;;;;;;;;5032988;28;20390;-78
2023/08/20 06:13:30;;;;;;;14.93;6.47;;;;;;;;;;5032612;28;20041;-79
2023/08/20 06:15:56;;;;;;;14.90;6.72;;;;;;;;;;5015331;28;20057;-78
2023/08/20 06:18:22;;;;;;;11.65;6.95;;;;;;;;;;4998372;28;20045;-78
2023/08/20 06:20:48;;;;;;;13.82;6.03;;;;;;;;;;5032926;28;20072;-78
2023/08/20 06:23:14;;;;;;;17.25;6.45;;;;;;;;;;5016366;28;20049;-78
2023/08/20 06:25:40;;;;;;;13.75;5.90;;;;;;;;;;5036800;28;20057;-78
2023/08/20 06:28:06;;;;;;;12.85;6.20;;;;;;;;;;5002392;28;20073;-78
2023/08/20 06:30:32;;;;;;;12.80;6.53;;;;;;;;;;5036861;28;20049;-78
2023/08/20 06:32:58;;;;;;;13.20;6.65;;;;;;;;;;5036410;28;20047;-79
2023/08/20 06:35:24;;;;;;;10.85;6.45;;;;;;;;;;5018709;28;20056;-78
2023/08/20 06:37:50;;;;;;;11.30;6.22;;;;;;;;;;5036277;28;20041;-79
2023/08/20 06:40:16;;;;;;;17.42;6.45;;;;;;;;;;5036398;28;20045;-79
2023/08/20 06:42:42;;;;;;;14.60;6.80;;;;;;;;;;5036219;28;20076;-78
2023/08/20 06:45:09;;;;;;;16.00;6.35;;;;;;;;;;5036033;28;20128;-78
2023/08/20 06:47:35;;;;;;;11.75;5.75;;;;;;;;;;5018489;28;20045;-78
2023/08/20 06:50:01;;;;;;;15.27;6.43;;;;;;;;;;5018596;28;20049;-78
2023/08/20 06:52:27;;;;;;;13.15;5.88;;;;;;;;;;5036095;28;20397;-78
2023/08/20 06:54:53;;;;;;;13.07;6.32;;;;;;;;;;5036182;28;20151;-78
2023/08/20 06:57:19;;;;;;;14.60;6.30;;;;;;;;;;5034141;28;20060;-78
2023/08/20 06:59:45;;;;;;;15.18;6.30;;;;;;;;;;5016787;28;20045;-79
2023/08/20 07:02:11;;;;;;;14.52;6.15;;;;;;;;;;5035366;28;20049;-78
2023/08/20 07:04:37;;;;;;;12.10;6.10;;;;;;;;;;5026279;28;20141;-78
2023/08/20 07:07:07;;;;;;;15.43;6.43;;;;;;;;;;4998151;28;20100;-78
2023/08/20 07:09:34;;;;;;;13.75;6.43;;;;;;;;;;5016392;28;20152;-78
2023/08/20 07:12:00;;;;;;;15.77;6.60;;;;;;;;;;5015697;28;20042;-79
2023/08/20 07:14:26;;;;;;;13.63;5.97;;;;;;;;;;5015877;28;20041;-79
2023/08/20 07:16:52;;;;;;;13.77;5.63;;;;;;;;;;5014763;28;20042;-79
2023/08/20 07:19:18;;;;;;;13.95;5.85;;;;;;;;;;4998677;28;20057;-79
2023/08/20 07:21:46;;;;;;;15.82;5.93;;;;;;;;;;5015637;28;20478;-78
2023/08/20 07:24:13;;;;;;;17.00;5.53;;;;;;;;;;4997646;28;20096;-78
2023/08/20 07:26:39;;;;;;;14.88;5.20;;;;;;;;;;5015834;28;20398;-78
2023/08/20 07:29:05;;;;;;;15.10;5.78;;;;;;;;;;4997706;28;20061;-78
2023/08/20 07:31:32;;;;;;;16.27;5.35;;;;;;;;;;4997898;28;20042;-78
2023/08/20 07:33:59;;;;;;;14.52;5.05;;;;;;;;;;5014695;28;20049;-78
2023/08/20 07:36:26;;;;;;;14.45;5.03;;;;;;;;;;5015473;28;20046;-78
2023/08/20 07:38:52;;;;;;;15.68;5.18;;;;;;;;;;5015273;28;20128;-78
2023/08/20 07:41:21;;;;;;;16.13;4.45;;;;;;;;;;5015253;28;20046;-78
2023/08/20 07:43:48;;;;;;;16.42;5.07;;;;;;;;;;4995672;28;20054;-78
2023/08/20 07:46:14;;;;;;;17.08;4.85;;;;;;;;;;5014776;28;20486;-78
2023/08/20 07:48:40;;;;;;;14.38;4.80;;;;;;;;;;5015156;28;20077;-77
2023/08/20 07:51:07;;;;;;;16.67;4.53;;;;;;;;;;5015374;28;20120;-77
2023/08/20 07:53:33;;;;;;;13.57;4.50;;;;;;;;;;5013483;28;20049;-77
2023/08/20 07:56:00;;;;;;;14.73;4.18;;;;;;;;;;4997624;28;20050;-79
2023/08/20 07:58:26;;;;;;;12.55;4.03;;;;;;;;;;4997731;28;20533;-80
2023/08/20 08:00:52;;;;;;;9.90;3.25;;;;;;;;;;5015267;28;20082;-79
2023/08/20 08:03:19;;;;;;;15.10;3.97;;;;;;;;;;5014626;28;20097;-79
2023/08/20 08:05:48;;;;;;;14.38;3.70;;;;;;;;;;5032744;28;20391;-79
2023/08/20 08:08:15;;;;;;;16.67;4.45;;;;;;;;;;5034625;28;20517;-80
2023/08/20 08:10:44;;;;;;;13.18;3.65;;;;;;;;;;5013330;28;20104;-78
2023/08/20 08:13:10;;;;;;;13.20;3.88;;;;;;;;;;5013705;28;20104;-78
2023/08/20 08:15:36;;;;;;;11.32;3.50;;;;;;;;;;4997350;28;20199;-77
2023/08/20 08:18:03;;;;;;;11.38;3.60;;;;;;;;;;5013580;28;20418;-79
2023/08/20 08:20:29;;;;;;;10.57;3.17;;;;;;;;;;5014672;28;20045;-78
2023/08/20 08:22:55;;;;;;;11.60;3.40;;;;;;;;;;5014556;28;20046;-79
2023/08/20 08:25:22;;;;;;;15.20;3.10;;;;;;;;;;5014538;28;20045;-78
2023/08/20 08:27:48;;;;;;;14.40;2.97;;;;;;;;;;4996906;28;20096;-79
2023/08/20 08:30:15;;;;;;;9.18;2.60;;;;;;;;;;4980933;28;20080;-79
2023/08/20 08:32:41;;;;;;;13.60;3.17;;;;;;;;;;4996326;28;20046;-78
2023/08/20 08:35:08;;;;;;;10.60;3.10;;;;;;;;;;5014357;28;20103;-78
2023/08/20 08:37:34;;;;;;;9.60;3.00;;;;;;;;;;5014290;28;20038;-79
2023/08/20 08:40:00;;;;;;;13.00;3.10;;;;;;;;;;5014372;28;20403;-78
2023/08/20 08:42:26;;;;;;;7.82;2.38;;;;;;;;;;5014028;28;20045;-79
2023/08/20 08:44:53;;;;;;;11.75;3.88;;;;;;;;;;5012303;28;20053;-79
2023/08/20 08:47:20;;;;;;;10.35;2.80;;;;;;;;;;5012766;28;20044;-79
2023/08/20 08:49:47;;;;;;;15.40;2.97;;;;;;;;;;5014111;28;20101;-78
2023/08/20 08:52:13;;;;;;;11.27;2.33;;;;;;;;;;4996734;28;20111;-79
2023/08/20 08:54:40;;;;;;;12.35;3.00;;;;;;;;;;4996694;28;20050;-79
2023/08/20 08:57:07;;;;;;;8.65;2.20;;;;;;;;;;5014549;28;20049;-79
2023/08/20 08:59:33;;;;;;;11.05;2.90;;;;;;;;;;5001878;28;20132;-76
2023/08/20 09:01:59;;;;;;;12.70;2.70;;;;;;;;;;5019409;28;20049;-78
2023/08/20 09:04:25;;;;;;;10.20;2.65;;;;;;;;;;5021705;28;20053;-76
2023/08/20 09:06:57;;;;;;;11.77;2.40;;;;;;;;;;5015082;28;20464;-80
2023/08/20 09:09:23;;;;;;;8.32;2.30;;;;;;;;;;4997030;28;20053;-78
2023/08/20 09:11:49;;;;;;;7.20;2.13;;;;;;;;;;5034098;28;20393;-78
2023/08/20 09:14:41;;;;;;;10.57;2.63;;;;;;;;;;5033633;28;20188;-78
2023/08/20 09:17:07;;;;;;;8.43;2.50;;;;;;;;;;5011724;28;20144;-79
2023/08/20 09:19:37;;;;;;;10.68;2.45;;;;;;;;;;5033825;28;20045;-78
2023/08/20 09:22:03;;;;;;;8.57;2.42;;;;;;;;;;5015935;28;20099;-78
2023/08/20 09:24:34;;;;;;;9.18;2.17;;;;;;;;;;5033188;28;20050;-78
2023/08/20 09:27:03;;;;;;;9.50;2.30;;;;;;;;;;5033295;28;20049;-79
2023/08/20 09:29:32;;;;;;;6.25;2.00;;;;;;;;;;5033503;28;20042;-78
2023/08/20 09:32:02;;;;;;;7.10;1.85;;;;;;;;;;5015235;28;20045;-78
2023/08/20 09:34:41;;;;;;;6.47;1.90;;;;;;;;;;5033495;28;20056;-79
2023/08/20 09:37:14;;;;;;;7.65;2.10;;;;;;;;;;5032568;28;20049;-79
2023/08/20 09:39:41;;;;;;;6.45;1.85;;;;;;;;;;5015560;28;20064;-79
2023/08/20 09:42:07;;;;;;;7.72;1.90;;;;;;;;;;5033024;28;20485;-79
2023/08/20 09:44:35;;;;;;;6.13;2.10;;;;;;;;;;5033198;28;20050;-78
2023/08/20 09:47:02;;;;;;;6.88;2.13;;;;;;;;;;5014990;28;20045;-79
2023/08/20 09:49:30;;;;;;;8.05;2.00;;;;;;;;;;5033298;28;20099;-79
2023/08/20 09:51:59;;;;;;;8.98;2.15;;;;;;;;;;5032818;28;20441;-80
2023/08/20 09:54:43;;;;;;;8.70;2.30;;;;;;;;;;5032830;28;20444;-79
2023/08/20 09:57:13;;;;;;;8.43;2.10;;;;;;;;;;5032673;28;20433;-79
2023/08/20 09:59:40;;;;;;;6.00;2.00;;;;;;;;;;5015074;28;20049;-79
2023/08/20 10:02:08;;;;;;;7.97;1.92;;;;;;;;;;5032790;28;20052;-78
2023/08/20 10:04:34;;;;;;;8.65;2.38;;;;;;;;;;4995305;28;20570;-78
2023/08/20 10:07:00;;;;;;;5.25;1.95;;;;;;;;;;4975578;28;20082;-79
2023/08/20 10:09:27;;;;;;;6.22;1.92;;;;;;;;;;4975806;28;20043;-78
2023/08/20 10:11:53;;;;;;;9.02;1.92;;;;;;;;;;4975623;28;20097;-79
2023/08/20 10:14:19;;;;;;;8.43;2.25;;;;;;;;;;4975623;28;20058;-79
2023/08/20 10:16:47;;;;;;;6.95;1.95;;;;;;;;;;4991780;28;20042;-80
2023/08/20 10:19:15;;;;;;;6.68;2.00;;;;;;;;;;4992785;28;20050;-79
2023/08/20 10:21:49;;;;;;;6.10;1.75;;;;;;;;;;4993211;28;20457;-79
2023/08/20 10:24:21;;;;;;;6.90;2.03;;;;;;;;;;4993043;28;20054;-79
2023/08/20 10:26:48;;;;;;;5.57;1.70;;;;;;;;;;4975600;28;20054;-79
2023/08/20 10:29:33;;;;;;;8.55;2.10;;;;;;;;;;4993306;28;20054;-79
2023/08/20 10:31:59;;;;;;;6.25;1.85;;;;;;;;;;4992817;28;20050;-79
2023/08/20 10:34:38;;;;;;;6.55;1.90;;;;;;;;;;4992639;28;20176;-79
2023/08/20 10:37:09;;;;;;;5.80;1.80;;;;;;;;;;4958958;28;20111;-78
2023/08/20 10:39:35;;;;;;;6.35;1.80;;;;;;;;;;4993290;28;20038;-79
2023/08/20 10:42:16;;;;;;;5.07;1.65;;;;;;;;;;4992502;28;20483;-78
2023/08/20 10:44:58;;;;;;;6.25;1.88;;;;;;;;;;4992782;28;20053;-79
2023/08/20 10:47:27;;;;;;;6.13;1.80;;;;;;;;;;4976274;28;20545;-79
2023/08/20 10:49:54;;;;;;;5.63;1.85;;;;;;;;;;4992871;28;20054;-78
2023/08/20 10:52:22;;;;;;;6.18;1.90;;;;;;;;;;4959395;28;20133;-78
2023/08/20 10:54:54;;;;;;;5.00;1.80;;;;;;;;;;4992521;28;20705;-79
2023/08/20 10:57:21;;;;;;;6.35;1.98;;;;;;;;;;4959516;28;20054;-78
2023/08/20 10:59:57;;;;;;;6.80;1.77;;;;;;;;;;4972967;28;20046;-79
2023/08/20 11:02:24;;;;;;;6.32;1.80;;;;;;;;;;4993053;28;20086;-78
2023/08/20 11:04:50;;;;;;;7.72;1.80;;;;;;;;;;4992483;28;20061;-79
2023/08/20 11:07:19;;;;;;;6.60;1.90;;;;;;;;;;5011827;28;20525;-79
2023/08/20 11:09:46;;;;;;;6.68;1.80;;;;;;;;;;5013051;28;20050;-78
2023/08/20 11:12:15;;;;;;;7.28;1.92;;;;;;;;;;4998264;28;20054;-78
2023/08/20 11:14:41;;;;;;;6.82;1.70;;;;;;;;;;5016057;28;20494;-79
2023/08/20 11:17:10;;;;;;;7.00;1.77;;;;;;;;;;4998168;28;20442;-78
2023/08/20 11:19:37;;;;;;;6.25;1.80;;;;;;;;;;5015833;28;20052;-78
2023/08/20 11:22:03;;;;;;;5.82;1.88;;;;;;;;;;5014487;28;20061;-79
2023/08/20 11:24:29;;;;;;;6.75;1.80;;;;;;;;;;5015514;28;20052;-81
2023/08/20 11:26:55;;;;;;;6.50;1.70;;;;;;;;;;4998200;28;20064;-79
2023/08/20 11:29:21;;;;;;;5.93;1.73;;;;;;;;;;4997941;28;20112;-79
2023/08/20 11:31:50;;;;;;;5.32;1.50;;;;;;;;;;5015226;28;20049;-79
2023/08/20 11:34:16;;;;;;;4.60;1.50;;;;;;;;;;5015390;28;20053;-79
2023/08/20 11:36:42;;;;;;;4.60;1.60;;;;;;;;;;5014359;28;20073;-79
2023/08/20 11:39:09;;;;;;;6.18;1.63;;;;;;;;;;5013192;28;20458;-80
2023/08/20 11:41:38;;;;;;;5.55;1.60;;;;;;;;;;5013647;28;20159;-79
2023/08/20 11:44:11;;;;;;;5.30;1.52;;;;;;;;;;5015064;28;20410;-79
2023/08/20 11:46:44;;;;;;;5.95;1.75;;;;;;;;;;5014706;28;20128;-79
2023/08/20 11:49:11;;;;;;;5.82;1.80;;;;;;;;;;5013671;28;20494;-79
2023/08/20 11:51:37;;;;;;;7.35;1.92;;;;;;;;;;5015054;28;20038;-80
2023/08/20 11:54:19;;;;;;;7.38;1.95;;;;;;;;;;4996870;28;20054;-78
2023/08/20 11:56:49;;;;;;;5.68;1.60;;;;;;;;;;4997178;28;20041;-79
2023/08/20 11:59:16;;;;;;;4.65;1.63;;;;;;;;;;4997336;28;20041;-79
2023/08/20 12:01:42;;;;;;;4.82;1.70;;;;;;;;;;4997419;28;20041;-80
2023/08/20 12:04:09;;;;;;;6.03;1.90;;;;;;;;;;5019386;28;20049;-79
2023/08/20 12:06:38;;;;;;;4.32;1.58;;;;;;;;;;5016475;28;20049;-79
2023/08/20 12:09:21;;;;;;;5.22;1.70;;;;;;;;;;5016415;28;20394;-79
2023/08/20 12:11:51;;;;;;;5.53;1.80;;;;;;;;;;5016370;28;20132;-78
2023/08/20 12:14:18;;;;;;;7.22;1.83;;;;;;;;;;5000111;28;20070;-78
2023/08/20 12:16:44;;;;;;;5.43;1.63;;;;;;;;;;5034417;28;20041;-79
2023/08/20 12:19:10;;;;;;;4.05;1.50;;;;;;;;;;5033562;28;20087;-79
2023/08/20 12:21:36;;;;;;;5.38;1.60;;;;;;;;;;5032128;28;20521;-79
2023/08/20 12:24:04;;;;;;;5.40;1.50;;;;;;;;;;5016501;28;20405;-80
2023/08/20 12:26:30;;;;;;;6.43;1.70;;;;;;;;;;5034436;28;20398;-79
2023/08/20 12:28:56;;;;;;;7.15;1.90;;;;;;;;;;5034093;28;20049;-78
2023/08/20 12:31:22;;;;;;;5.28;1.60;;;;;;;;;;5034043;28;20052;-79
2023/08/20 12:33:48;;;;;;;7.43;1.65;;;;;;;;;;5033983;28;20053;-79
2023/08/20 12:36:14;;;;;;;6.22;1.60;;;;;;;;;;5016438;28;20054;-79
2023/08/20 12:38:41;;;;;;;7.45;1.95;;;;;;;;;;5033748;28;20119;-79
2023/08/20 12:41:08;;;;;;;6.13;1.80;;;;;;;;;;5016142;28;20045;-79
2023/08/20 12:43:34;;;;;;;4.40;1.63;;;;;;;;;;4999351;28;20513;-79
2023/08/20 12:46:00;;;;;;;6.20;1.77;;;;;;;;;;5033927;28;20049;-79
2023/08/20 12:48:26;;;;;;;4.95;1.60;;;;;;;;;;5016281;28;20073;-79
2023/08/20 12:50:52;;;;;;;4.97;1.63;;;;;;;;;;5020904;28;20316;-77
2023/08/20 12:53:18;;;;;;;5.57;1.50;;;;;;;;;;5039415;28;20041;-77
2023/08/20 12:55:44;;;;;;;6.45;1.60;;;;;;;;;;5035679;28;20049;-79
2023/08/20 12:58:11;;;;;;;6.35;1.55;;;;;;;;;;5034211;28;20041;-79
2023/08/20 13:00:37;;;;;;;5.18;1.60;;;;;;;;;;5033977;28;20045;-80
2023/08/20 13:03:03;;;;;;;5.60;1.60;;;;;;;;;;5015993;28;20064;-79
2023/08/20 13:05:29;;;;;;;5.93;1.88;;;;;;;;;;5033653;28;20143;-79
2023/08/20 13:07:55;;;;;;;6.90;1.88;;;;;;;;;;4997841;28;20052;-78
2023/08/20 13:10:21;;;;;;;6.28;1.92;;;;;;;;;;5014134;28;20045;-79
2023/08/20 13:13:00;;;;;;;5.68;1.48;;;;;;;;;;5030862;28;20455;-78
2023/08/20 13:15:26;;;;;;;7.43;1.92;;;;;;;;;;5015524;28;20041;-79
2023/08/20 13:17:52;;;;;;;7.72;2.00;;;;;;;;;;5015563;28;20052;-79
2023/08/20 13:20:24;;;;;;;8.45;2.00;;;;;;;;;;5033307;28;20056;-79
2023/08/20 13:22:51;;;;;;;6.22;1.88;;;;;;;;;;5033333;28;20046;-79
2023/08/20 13:25:18;;;;;;;5.45;1.63;;;;;;;;;;5015545;28;20100;-79
2023/08/20 13:27:44;;;;;;;6.40;1.70;;;;;;;;;;5015314;28;20124;-79
2023/08/20 13:30:11;;;;;;;4.93;1.55;;;;;;;;;;5015379;28;20136;-79
2023/08/20 13:32:37;;;;;;;5.53;1.60;;;;;;;;;;5032398;28;20105;-80
2023/08/20 13:35:07;;;;;;;4.65;1.50;;;;;;;;;;5032729;28;20179;-79
2023/08/20 13:37:34;;;;;;;4.93;1.45;;;;;;;;;;5033549;28;20095;-77
2023/08/20 13:40:00;;;;;;;6.90;1.77;;;;;;;;;;5015416;28;20060;-78
2023/08/20 13:42:26;;;;;;;5.57;1.70;;;;;;;;;;5033138;28;20047;-78
2023/08/20 13:44:52;;;;;;;6.00;1.65;;;;;;;;;;5032765;28;20131;-80
2023/08/20 13:47:18;;;;;;;6.32;1.77;;;;;;;;;;5032744;28;20050;-80
2023/08/20 13:49:45;;;;;;;7.50;1.80;;;;;;;;;;5015094;28;20072;-80
2023/08/20 13:52:11;;;;;;;5.43;1.63;;;;;;;;;;5014907;28;20094;-79
2023/08/20 13:54:37;;;;;;;5.15;1.40;;;;;;;;;;5032661;28;20103;-79
2023/08/20 13:57:03;;;;;;;5.00;1.70;;;;;;;;;;5032492;28;20050;-79
2023/08/20 13:59:29;;;;;;;5.53;1.77;;;;;;;;;;5014728;28;20099;-79
2023/08/20 14:01:56;;;;;;;5.32;1.50;;;;;;;;;;5030381;28;20052;-79
2023/08/20 14:04:22;;;;;;;6.20;1.70;;;;;;;;;;5010577;28;20387;-78
2023/08/20 14:06:48;;;;;;;6.22;1.80;;;;;;;;;;5012428;28;20053;-79
2023/08/20 14:09:14;;;;;;;4.68;1.52;;;;;;;;;;5011509;28;20133;-79
2023/08/20 14:11:40;;;;;;;4.80;1.67;;;;;;;;;;5012857;28;20042;-80
2023/08/20 14:14:06;;;;;;;4.68;1.48;;;;;;;;;;5012475;28;20050;-79
2023/08/20 14:16:32;;;;;;;4.82;1.50;;;;;;;;;;5013383;28;20321;-80
2023/08/20 14:18:58;;;;;;;5.18;1.60;;;;;;;;;;5012791;28;20042;-79
2023/08/20 14:21:24;;;;;;;6.18;1.70;;;;;;;;;;5009975;28;20050;-78
2023/08/20 14:23:50;;;;;;;4.40;1.52;;;;;;;;;;5012503;28;20130;-79
2023/08/20 14:26:16;;;;;;;6.00;1.63;;;;;;;;;;5011238;28;20486;-79
2023/08/20 14:28:43;;;;;;;4.97;1.48;;;;;;;;;;5010946;28;20508;-80
2023/08/20 14:31:09;;;;;;;5.30;1.70;;;;;;;;;;5012506;28;20053;-79
2023/08/20 14:33:35;;;;;;;6.75;1.60;;;;;;;;;;5012707;28;20050;-79
2023/08/20 14:36:01;;;;;;;6.93;1.60;;;;;;;;;;5011047;28;20129;-80